Time;durP1;ratioP1;P1;durP2;ratioP2;P2;SDS_P1;SDS_P2;PMS_P1;PMS_P2;Temp;Humidity;BMP_temperature;BMP_pressure;BME280_temperature;BME280_humidity;BME280_pressure;Samples;Min_cycle;Max_cycle;Signal;HPM_P1;HPM_P2
2022/07/09 00:33:34;;;;;;;14.05;8.00;;;16.40;99.90;;;;;;5680603;23;20047;-66
2022/07/09 00:35:59;;;;;;;16.58;8.68;;;16.40;99.90;;;;;;4936171;29;20049;-66
2022/07/09 00:46:11;;;;;;;19.83;8.70;;;16.50;99.90;;;;;;5144703;23;20136;-65
2022/07/09 01:09:21;;;;;;;13.98;7.70;;;16.60;99.90;;;;;;5063611;23;20048;-67
2022/07/09 01:11:47;;;;;;;18.50;8.25;;;16.60;99.90;;;;;;4894278;29;20039;-67
2022/07/09 01:14:13;;;;;;;17.10;8.45;;;16.60;99.90;;;;;;4897241;29;20044;-67
2022/07/09 01:21:49;;;;;;;16.35;8.35;;;16.50;99.90;;;;;;5406550;23;20513;-67
2022/07/09 01:24:15;;;;;;;15.75;7.88;;;16.50;99.90;;;;;;4893061;29;20040;-66
2022/07/09 01:26:40;;;;;;;22.02;8.93;;;16.40;99.90;;;;;;4897342;29;20092;-65
2022/07/09 01:34:17;;;;;;;17.45;8.50;;;16.30;99.90;;;;;;5785021;23;20052;-66
2022/07/09 01:36:44;;;;;;;18.67;8.23;;;16.20;99.90;;;;;;4928681;29;20496;-66
2022/07/09 01:59:53;;;;;;;28.08;11.68;;;16.40;99.90;;;;;;5286871;23;20056;-66
2022/07/09 02:02:19;;;;;;;23.23;11.57;;;16.40;99.90;;;;;;4933683;29;20377;-66
2022/07/09 02:07:20;;;;;;;24.15;11.32;;;16.30;99.90;;;;;;5990704;23;20051;-66
2022/07/09 02:09:46;;;;;;;19.73;12.25;;;16.30;99.90;;;;;;4894514;29;20129;-66
2022/07/09 02:40:41;;;;;;;21.15;11.60;;;16.30;99.90;;;;;;5569530;23;20044;-67
2022/07/09 03:06:25;;;;;;;21.05;9.63;;;16.30;99.90;;;;;;5685343;23;20790;-67
2022/07/09 03:08:51;;;;;;;20.40;9.93;;;16.20;99.90;;;;;;4913380;29;20040;-66
2022/07/09 03:11:17;;;;;;;20.73;9.15;;;16.30;99.90;;;;;;4905476;29;20413;-67
2022/07/09 04:13:33;;;;;;;16.35;8.90;;;16.30;99.90;;;;;;4870391;29;20053;-67
2022/07/09 04:15:58;;;;;;;17.85;9.02;;;16.30;99.90;;;;;;4862992;29;20041;-67
2022/07/09 04:18:24;;;;;;;17.50;9.13;;;16.20;99.90;;;;;;4863154;29;20049;-67
2022/07/09 04:28:37;;;;;;;17.55;9.05;;;16.20;99.90;;;;;;5865852;23;20353;-67
2022/07/09 04:31:03;;;;;;;16.23;9.77;;;16.20;99.90;;;;;;4913680;29;20095;-67
2022/07/09 04:33:28;;;;;;;21.45;8.90;;;16.20;99.90;;;;;;4916987;29;20400;-67
2022/07/09 04:46:31;;;;;;;17.35;9.45;;;16.30;99.90;;;;;;5812123;23;20052;-67
2022/07/09 04:48:56;;;;;;;20.55;9.73;;;16.30;99.90;;;;;;4930105;29;20055;-67
2022/07/09 04:51:22;;;;;;;21.20;9.50;;;16.30;99.90;;;;;;4930756;29;20480;-66
2022/07/09 05:14:31;;;;;;;16.83;8.65;;;16.80;99.90;;;;;;4911098;23;20064;-67
2022/07/09 05:16:56;;;;;;;21.77;9.23;;;16.90;99.90;;;;;;4872872;29;20040;-67
2022/07/09 05:19:22;;;;;;;15.40;9.05;;;17.00;99.90;;;;;;4858796;29;20049;-67
2022/07/09 05:21:48;;;;;;;14.68;8.57;;;17.00;99.90;;;;;;4867532;29;20313;-66
2022/07/09 05:24:13;;;;;;;17.55;8.95;;;17.00;99.90;;;;;;4870283;29;20053;-67
2022/07/09 05:39:36;;;;;;;16.48;9.07;;;16.90;99.90;;;;;;5972946;23;20034;-66
2022/07/09 05:42:02;;;;;;;16.13;8.52;;;16.90;99.90;;;;;;4917506;29;20127;-67
2022/07/09 05:44:27;;;;;;;15.80;8.85;;;17.00;99.90;;;;;;4913254;29;20063;-66
2022/07/09 05:57:29;;;;;;;17.52;8.35;;;17.30;99.90;;;;;;5671579;23;20421;-66
2022/07/09 06:11:41;;;;;;;15.00;7.15;;;17.60;99.90;;;;;;5411678;23;20074;-67
2022/07/09 06:14:07;;;;;;;12.70;7.20;;;17.70;99.90;;;;;;4928553;29;20043;-65
2022/07/09 06:16:32;;;;;;;11.50;7.20;;;17.90;99.90;;;;;;4923862;29;20047;-66
2022/07/09 06:18:58;;;;;;;13.57;6.88;;;17.90;99.90;;;;;;4933995;29;20035;-66
2022/07/09 07:43:11;;;;;;;7.72;3.35;;;19.20;99.90;;;;;;5759653;23;20428;-66
2022/07/09 07:45:38;;;;;;;9.68;3.75;;;19.10;99.90;;;;;;4918714;29;20429;-66
2022/07/09 07:57:05;;;;;;;6.90;3.40;;;19.20;99.90;;;;;;5345161;23;20065;-65
2022/07/09 07:59:31;;;;;;;5.70;3.63;;;19.20;99.90;;;;;;4912605;29;20040;-65
2022/07/09 08:01:57;;;;;;;7.00;3.40;;;19.20;99.90;;;;;;5111047;23;20439;-66
2022/07/09 08:04:22;;;;;;;7.95;3.35;;;19.20;99.90;;;;;;4929638;29;20042;-66
2022/07/09 08:24:56;;;;;;;6.20;3.40;;;19.40;99.90;;;;;;5241941;23;20526;-64
2022/07/09 08:27:24;;;;;;;6.88;4.10;;;19.50;99.90;;;;;;4925332;29;20048;-65
2022/07/09 08:29:49;;;;;;;5.65;3.83;;;19.60;99.90;;;;;;4920649;29;20060;-66
2022/07/09 08:32:16;;;;;;;6.68;3.80;;;19.80;99.90;;;;;;4922837;29;20032;-67
2022/07/09 08:34:41;;;;;;;5.45;3.53;;;19.90;99.90;;;;;;4917587;29;20046;-67
2022/07/09 08:37:07;;;;;;;6.13;3.65;;;20.00;99.90;;;;;;4916216;29;20040;-66
2022/07/09 08:39:33;;;;;;;5.47;3.40;;;20.00;99.90;;;;;;4913821;29;20034;-66
2022/07/09 08:41:59;;;;;;;6.78;3.45;;;20.00;99.90;;;;;;4930438;28;20291;-66
2022/07/09 08:44:29;;;;;;;7.53;3.33;;;20.00;99.90;;;;;;4928605;29;20656;-66
2022/07/09 08:46:58;;;;;;;12.07;3.30;;;20.20;99.90;;;;;;4899428;29;20075;-66
2022/07/09 08:49:26;;;;;;;6.55;3.05;;;20.50;99.90;;;;;;4916688;29;20099;-66
2022/07/09 08:51:53;;;;;;;7.40;2.95;;;20.80;99.90;;;;;;4911141;29;20044;-66
2022/07/09 08:54:20;;;;;;;8.40;3.10;;;21.00;99.90;;;;;;4922411;29;20052;-65
2022/07/09 08:56:46;;;;;;;7.30;3.20;;;21.20;99.90;;;;;;4919419;29;20186;-65
2022/07/09 08:59:12;;;;;;;8.07;3.20;;;21.10;99.90;;;;;;4919727;29;20504;-66
2022/07/09 09:01:38;;;;;;;5.80;2.85;;;20.90;99.90;;;;;;4920261;29;20039;-65
2022/07/09 09:04:04;;;;;;;4.22;2.20;;;20.70;99.90;;;;;;4916870;29;20064;-66
2022/07/09 09:06:37;;;;;;;3.33;2.10;;;20.70;99.90;;;;;;4904558;29;20075;-69
2022/07/09 09:09:02;;;;;;;3.38;2.25;;;20.80;99.90;;;;;;4909449;29;20044;-65
2022/07/09 09:11:28;;;;;;;5.90;2.42;;;21.00;99.90;;;;;;4909274;29;20586;-66
2022/07/09 09:13:54;;;;;;;4.82;2.33;;;21.10;99.90;;;;;;4913270;29;20044;-66
2022/07/09 09:16:21;;;;;;;4.95;2.38;;;21.30;99.90;;;;;;4912207;29;20059;-65
2022/07/09 09:18:49;;;;;;;3.13;2.40;;;21.30;99.90;;;;;;4907014;29;20047;-65
2022/07/09 09:21:16;;;;;;;4.18;2.58;;;21.50;99.90;;;;;;4910724;29;20052;-68
2022/07/09 09:27:33;;;;;;;4.75;2.63;;;21.50;99.90;;;;;;5148133;23;20078;-67
2022/07/09 09:33:40;;;;;;;6.00;2.40;;;21.40;99.90;;;;;;4917685;29;20049;-65
2022/07/09 09:36:06;;;;;;;4.22;2.40;;;21.50;99.90;;;;;;4890708;29;20040;-66
2022/07/09 09:38:32;;;;;;;5.00;2.72;;;21.60;99.90;;;;;;4894200;29;20144;-67
2022/07/09 10:09:17;;;;;;;5.65;1.80;;;21.60;99.90;;;;;;5468504;23;20094;-66
2022/07/09 10:11:43;;;;;;;3.05;1.90;;;21.60;99.90;;;;;;5562167;23;20070;-66
2022/07/09 10:14:35;;;;;;;2.97;1.90;;;21.80;99.90;;;;;;4922708;29;20572;-67
2022/07/09 10:17:15;;;;;;;3.45;1.85;;;22.00;99.90;;;;;;4930950;29;20051;-66
2022/07/09 10:20:16;;;;;;;3.33;1.70;;;22.20;99.90;;;;;;5049323;23;20045;-67
2022/07/09 10:22:44;;;;;;;3.67;1.67;;;22.40;99.90;;;;;;4864862;29;20140;-67
2022/07/09 10:25:12;;;;;;;5.63;1.90;;;22.40;99.90;;;;;;4887461;29;20517;-67
2022/07/09 10:28:19;;;;;;;2.58;1.70;;;22.50;99.90;;;;;;4897386;29;20021;-66
2022/07/09 10:31:07;;;;;;;2.95;1.88;;;22.60;99.90;;;;;;5133322;23;20398;-67
2022/07/09 10:33:35;;;;;;;1.75;1.30;;;22.60;99.90;;;;;;4908001;29;20405;-66
2022/07/09 10:38:38;;;;;;;4.05;1.50;;;22.20;99.90;;;;;;5322843;23;20051;-68
2022/07/09 10:46:12;;;;;;;2.55;1.70;;;22.50;99.90;;;;;;4875570;29;20526;-67
2022/07/09 10:48:38;;;;;;;3.28;1.70;;;22.20;99.90;;;;;;4877649;29;20100;-67
2022/07/09 10:51:04;;;;;;;5.18;1.73;;;21.90;99.90;;;;;;4877500;29;20041;-67
2022/07/09 11:14:31;;;;;;;5.18;1.58;;;22.40;99.90;;;;;;4941155;23;20064;-67
2022/07/09 11:16:58;;;;;;;5.35;1.80;;;22.60;99.90;;;;;;4911203;29;20036;-67
2022/07/09 11:19:24;;;;;;;5.72;1.70;;;22.60;99.90;;;;;;4914326;29;20440;-67
2022/07/09 11:21:59;;;;;;;4.18;1.70;;;22.80;99.90;;;;;;4892512;29;20040;-67
2022/07/09 11:35:46;;;;;;;5.72;2.00;;;22.90;99.90;;;;;;5186522;23;20512;-67
2022/07/09 11:48:54;;;;;;;4.78;1.90;;;21.80;99.90;;;;;;6082358;23;20031;-66
2022/07/09 11:56:58;;;;;;;4.03;1.90;;;22.30;99.90;;;;;;5750919;23;20044;-67
2022/07/09 12:38:15;;;;;;;8.13;2.35;;;22.30;99.90;;;;;;5806606;23;20052;-67
2022/07/09 12:40:40;;;;;;;5.35;2.13;;;22.30;99.90;;;;;;4906787;29;20047;-67
2022/07/09 12:43:06;;;;;;;7.45;2.72;;;22.20;99.90;;;;;;4902749;29;20040;-66
2022/07/09 12:54:35;;;;;;;4.57;1.70;;;21.90;99.90;;;;;;4963983;28;20047;-67
2022/07/09 12:57:01;;;;;;;4.00;1.60;;;21.70;99.90;;;;;;5063191;23;20472;-67
2022/07/09 13:04:37;;;;;;;3.45;1.52;;;21.80;99.90;;;;;;5266560;23;20420;-67
2022/07/09 13:22:30;;;;;;;3.63;1.40;;;22.00;98.40;;;;;;5537358;23;20056;-70
2022/07/09 13:24:55;;;;;;;3.80;1.83;;;21.70;98.50;;;;;;4894118;29;20389;-69
2022/07/09 13:27:21;;;;;;;6.38;1.83;;;21.60;98.60;;;;;;4904675;29;20036;-69
2022/07/09 13:37:33;;;;;;;5.03;1.42;;;21.20;98.60;;;;;;5424043;23;20051;-68
2022/07/09 13:39:58;;;;;;;5.28;1.60;;;21.10;97.90;;;;;;4915937;29;20127;-68
2022/07/09 13:45:00;;;;;;;4.53;1.77;;;21.10;98.80;;;;;;4975987;23;20048;-71
2022/07/09 13:47:25;;;;;;;8.88;1.73;;;21.50;98.10;;;;;;4917440;29;20386;-69
2022/07/09 13:56:08;;;;;;;3.17;1.15;;;21.60;97.50;;;;;;4970441;23;20063;-70
2022/07/09 14:01:09;;;;;;;7.88;1.63;;;21.20;97.90;;;;;;5019298;23;20064;-69
2022/07/09 14:03:35;;;;;;;4.25;1.60;;;21.10;98.80;;;;;;5074831;23;20468;-69
2022/07/09 14:06:01;;;;;;;8.20;1.90;;;21.30;99.00;;;;;;4930659;29;20132;-69
2022/07/09 14:08:27;;;;;;;3.97;1.48;;;21.30;98.80;;;;;;4925158;29;20047;-69
2022/07/09 14:14:25;;;;;;;4.78;1.38;;;21.30;98.60;;;;;;5970229;23;20038;-68
2022/07/09 14:16:51;;;;;;;6.00;1.60;;;21.80;98.00;;;;;;4882195;29;20080;-68
2022/07/09 14:21:45;;;;;;;5.55;1.55;;;21.70;96.80;;;;;;4888574;29;20045;-68
2022/07/09 14:24:10;;;;;;;3.13;1.50;;;21.60;98.10;;;;;;4881244;29;20816;-69
2022/07/09 14:26:36;;;;;;;7.70;1.52;;;22.00;98.70;;;;;;4887325;29;20080;-69
2022/07/09 14:36:44;;;;;;;2.50;1.33;;;22.10;98.90;;;;;;4884920;29;20524;-69
2022/07/09 14:39:10;;;;;;;5.35;1.50;;;21.90;96.90;;;;;;4891880;29;20048;-68
2022/07/09 14:41:36;;;;;;;9.68;1.42;;;22.10;97.30;;;;;;4876262;29;20482;-70
2022/07/09 14:44:02;;;;;;;5.72;1.30;;;21.70;96.70;;;;;;4885024;29;20048;-68
2022/07/09 14:46:28;;;;;;;6.70;1.70;;;21.30;96.50;;;;;;4879476;29;20049;-68
2022/07/09 14:48:54;;;;;;;3.58;1.20;;;20.90;98.30;;;;;;4874361;29;20413;-70
2022/07/09 14:51:20;;;;;;;3.60;1.25;;;21.00;98.50;;;;;;4879440;29;20135;-69
2022/07/09 14:53:46;;;;;;;4.72;1.40;;;21.00;98.10;;;;;;4880870;29;20037;-69
2022/07/09 14:56:11;;;;;;;3.47;1.30;;;20.90;98.10;;;;;;4878395;29;20084;-70
2022/07/09 14:58:37;;;;;;;2.17;1.30;;;20.80;98.10;;;;;;4885900;29;20078;-68
2022/07/09 15:01:04;;;;;;;5.20;1.30;;;20.50;97.20;;;;;;4899272;29;20045;-70
2022/07/09 15:03:29;;;;;;;2.35;1.33;;;20.50;97.90;;;;;;4869622;29;20076;-71
2022/07/09 15:08:30;;;;;;;4.38;1.50;;;20.80;97.30;;;;;;4988920;23;20048;-67
2022/07/09 15:10:56;;;;;;;2.35;1.30;;;20.70;97.30;;;;;;4915309;29;20040;-71
2022/07/09 15:15:58;;;;;;;4.53;1.40;;;20.80;96.70;;;;;;5276682;23;20540;-69
2022/07/09 15:28:38;;;;;;;4.75;1.60;;;21.20;97.00;;;;;;5457037;23;20056;-71
2022/07/09 15:31:04;;;;;;;3.88;1.50;;;20.70;97.70;;;;;;4891612;29;20114;-71
2022/07/09 15:36:05;;;;;;;3.08;1.58;;;20.40;97.90;;;;;;5375752;23;20106;-70
2022/07/09 15:41:13;;;;;;;4.65;1.70;;;20.20;98.40;;;;;;5043660;23;20097;-70
2022/07/09 15:46:14;;;;;;;5.78;1.80;;;20.10;98.80;;;;;;5664044;23;20052;-70
2022/07/09 15:55:24;;;;;;;7.18;2.17;;;20.00;99.90;;;;;;5378842;23;20112;-73
2022/07/09 15:57:50;;;;;;;5.15;1.70;;;20.20;99.60;;;;;;4969649;23;20052;-69
2022/07/09 16:00:15;;;;;;;7.97;1.85;;;19.80;99.40;;;;;;4892411;29;20056;-71
2022/07/09 16:26:00;;;;;;;4.43;2.10;;;19.30;99.30;;;;;;5563932;23;20048;-68
2022/07/09 16:28:25;;;;;;;6.85;1.98;;;19.50;99.00;;;;;;4922128;29;20048;-69
2022/07/09 16:30:51;;;;;;;5.22;2.03;;;19.60;98.70;;;;;;4932257;29;20046;-68
2022/07/09 16:33:16;;;;;;;3.50;1.67;;;19.70;99.00;;;;;;4934750;29;20067;-69
2022/07/09 16:35:42;;;;;;;3.88;1.67;;;19.50;98.80;;;;;;4935132;29;20124;-68
2022/07/09 16:38:08;;;;;;;6.95;1.70;;;19.40;97.50;;;;;;4929543;29;20122;-67
2022/07/09 16:40:34;;;;;;;4.32;1.55;;;19.20;98.30;;;;;;4934694;29;20066;-71
2022/07/09 16:42:59;;;;;;;5.82;1.60;;;19.10;98.20;;;;;;4934476;29;20127;-70
2022/07/09 16:45:25;;;;;;;5.05;1.83;;;19.10;98.70;;;;;;4929268;29;20071;-69
2022/07/09 16:48:06;;;;;;;4.15;1.50;;;19.10;98.50;;;;;;4934492;29;20091;-69
2022/07/09 16:50:32;;;;;;;4.32;1.38;;;19.00;98.10;;;;;;4915988;29;20047;-68
2022/07/09 16:58:08;;;;;;;3.88;1.67;;;19.10;97.80;;;;;;5643457;23;20116;-68
2022/07/09 17:00:34;;;;;;;2.47;1.27;;;19.90;97.50;;;;;;4905875;29;20041;-67
2022/07/09 17:08:10;;;;;;;5.18;1.55;;;20.40;94.60;;;;;;5848932;23;20060;-71
2022/07/09 17:10:37;;;;;;;5.18;1.38;;;20.00;95.30;;;;;;4923006;29;20135;-69
2022/07/09 17:13:03;;;;;;;4.72;1.58;;;19.70;96.10;;;;;;4921711;29;20047;-68
2022/07/09 17:15:29;;;;;;;3.83;1.25;;;19.60;96.50;;;;;;4918839;29;20044;-68
2022/07/09 17:17:55;;;;;;;1.55;0.93;;;19.80;96.40;;;;;;4909199;29;20036;-68
2022/07/09 17:20:20;;;;;;;5.20;1.42;;;19.60;96.10;;;;;;4915920;29;20102;-70
2022/07/09 17:22:48;;;;;;;5.13;1.55;;;19.20;96.70;;;;;;4896276;29;20040;-67
2022/07/09 17:25:15;;;;;;;3.60;1.50;;;18.90;97.40;;;;;;4895853;29;20041;-69
2022/07/09 17:50:05;;;;;;;4.85;1.08;;;18.50;99.50;;;;;;5433284;23;20056;-70
2022/07/09 17:52:31;;;;;;;4.57;1.20;;;18.40;99.40;;;;;;4907308;29;20232;-70
2022/07/09 17:55:19;;;;;;;4.32;1.13;;;18.40;99.00;;;;;;4918172;29;20068;-68
2022/07/09 17:57:42;;;;;;;6.00;1.27;;;18.80;98.70;;;;;;4915516;29;20047;-69
2022/07/09 18:00:10;;;;;;;5.13;1.10;;;19.40;98.20;;;;;;4905932;29;20044;-68
2022/07/09 18:02:36;;;;;;;4.05;1.10;;;19.80;96.80;;;;;;4912433;29;20192;-69
2022/07/09 18:20:34;;;;;;;2.70;1.00;;;17.90;97.30;;;;;;5649705;23;20055;-69
2022/07/09 18:35:57;;;;;;;6.90;1.52;;;17.10;99.50;;;;;;5135959;23;20519;-69
2022/07/09 18:40:58;;;;;;;7.18;1.13;;;17.00;99.90;;;;;;5147179;23;20271;-70
2022/07/09 18:43:23;;;;;;;3.17;1.10;;;16.90;99.90;;;;;;5010889;28;20548;-69
2022/07/09 18:45:49;;;;;;;6.50;1.60;;;16.90;99.90;;;;;;4989482;28;20045;-70
2022/07/09 18:48:14;;;;;;;6.53;1.20;;;16.80;99.90;;;;;;5010747;28;20038;-66
2022/07/09 18:50:40;;;;;;;7.63;1.35;;;16.80;99.90;;;;;;4999348;28;20144;-67
2022/07/09 18:53:06;;;;;;;6.25;1.25;;;16.70;99.90;;;;;;4982962;28;20034;-70
2022/07/09 18:55:33;;;;;;;6.20;1.20;;;16.60;99.90;;;;;;4983334;28;20046;-69
2022/07/09 18:58:00;;;;;;;3.15;1.50;;;16.60;99.90;;;;;;4980363;28;20049;-68
2022/07/09 19:00:27;;;;;;;2.90;1.20;;;16.60;99.90;;;;;;4984976;28;20494;-69
2022/07/09 19:02:53;;;;;;;3.45;1.10;;;16.60;99.90;;;;;;4986224;28;20042;-68
2022/07/09 19:05:19;;;;;;;4.32;1.20;;;16.50;99.90;;;;;;4984613;28;20177;-70
2022/07/09 19:07:45;;;;;;;3.78;1.00;;;16.50;99.90;;;;;;5001602;28;20506;-69
2022/07/09 19:10:11;;;;;;;3.63;1.20;;;16.50;99.90;;;;;;4998003;28;20061;-70
2022/07/09 19:12:36;;;;;;;8.70;1.70;;;16.50;99.90;;;;;;5002546;28;20153;-68
2022/07/09 19:15:07;;;;;;;5.93;1.20;;;16.40;99.90;;;;;;4982089;28;20091;-70
2022/07/09 19:17:34;;;;;;;3.20;1.30;;;16.40;99.90;;;;;;5001997;28;20099;-70
2022/07/09 19:19:59;;;;;;;5.65;1.40;;;16.40;99.90;;;;;;4967062;28;20045;-69
2022/07/09 19:22:25;;;;;;;3.80;1.30;;;16.40;99.90;;;;;;4984536;28;20034;-70
2022/07/09 19:24:52;;;;;;;6.78;1.38;;;16.30;99.90;;;;;;4979779;28;20050;-69
2022/07/09 19:27:18;;;;;;;4.57;1.60;;;16.30;99.90;;;;;;4983467;28;20391;-69
2022/07/09 19:29:44;;;;;;;3.67;1.30;;;16.30;99.90;;;;;;4984618;28;20530;-69
2022/07/09 19:34:59;;;;;;;5.95;1.48;;;16.20;99.90;;;;;;4998569;28;20050;-70
2022/07/09 19:37:25;;;;;;;4.90;1.65;;;16.20;99.90;;;;;;4982626;28;20099;-68
2022/07/09 19:39:50;;;;;;;6.50;1.50;;;16.10;99.90;;;;;;4982406;28;20033;-74
2022/07/09 19:42:16;;;;;;;7.60;1.77;;;16.00;99.90;;;;;;4981177;28;20042;-69
2022/07/09 19:44:42;;;;;;;5.30;1.23;;;16.10;99.90;;;;;;5002214;28;20088;-69
2022/07/09 19:47:08;;;;;;;6.13;1.30;;;16.00;99.90;;;;;;5010395;28;20092;-69
2022/07/09 19:49:34;;;;;;;3.22;1.25;;;16.00;99.90;;;;;;4981750;28;20046;-69
2022/07/09 19:51:59;;;;;;;7.63;1.40;;;16.00;99.90;;;;;;4984647;28;20557;-69
2022/07/09 19:54:39;;;;;;;5.05;1.42;;;16.00;99.90;;;;;;4984527;28;20487;-69
2022/07/09 19:57:06;;;;;;;5.28;1.30;;;16.00;99.90;;;;;;4961551;28;20052;-69
2022/07/09 20:07:19;;;;;;;5.65;1.30;;;15.90;99.90;;;;;;4983498;23;20051;-68
2022/07/09 20:09:45;;;;;;;7.72;1.58;;;15.90;99.90;;;;;;5215540;23;20041;-69
2022/07/09 20:12:11;;;;;;;5.75;1.73;;;15.90;99.90;;;;;;4959330;28;20406;-69
2022/07/09 20:22:39;;;;;;;4.63;1.50;;;15.70;99.90;;;;;;4983309;28;20204;-68
2022/07/09 20:25:05;;;;;;;5.38;1.30;;;15.60;99.90;;;;;;4986645;28;20498;-69
2022/07/09 20:30:07;;;;;;;4.43;1.48;;;15.50;99.90;;;;;;5120477;23;20805;-69
2022/07/09 20:32:33;;;;;;;3.60;1.25;;;15.50;99.90;;;;;;4953220;29;20461;-69
2022/07/09 20:34:58;;;;;;;5.88;1.50;;;15.50;99.90;;;;;;4972466;23;20059;-66
2022/07/09 20:37:24;;;;;;;7.35;1.75;;;15.40;99.90;;;;;;4978140;28;20113;-66
2022/07/09 20:39:51;;;;;;;4.72;1.17;;;15.40;99.90;;;;;;4968971;28;20062;-66
2022/07/09 20:42:17;;;;;;;7.95;1.65;;;15.40;99.90;;;;;;4978926;28;20415;-66
2022/07/09 20:44:43;;;;;;;4.18;1.40;;;15.30;99.90;;;;;;4989916;28;20042;-66
2022/07/09 20:47:10;;;;;;;4.38;1.38;;;15.30;99.90;;;;;;4975556;28;20044;-66
2022/07/09 20:49:36;;;;;;;6.53;1.50;;;15.30;99.90;;;;;;4958251;28;20047;-66
2022/07/09 20:52:02;;;;;;;6.25;1.80;;;15.30;99.90;;;;;;4980967;28;20085;-66
2022/07/09 20:54:28;;;;;;;6.93;1.70;;;15.30;99.90;;;;;;4975233;28;20129;-66
2022/07/09 20:56:53;;;;;;;5.57;1.60;;;15.30;99.90;;;;;;4967272;28;20122;-66
2022/07/09 20:59:19;;;;;;;6.95;1.75;;;15.30;99.90;;;;;;4978144;28;20042;-66
2022/07/09 21:01:44;;;;;;;5.25;1.60;;;15.20;99.90;;;;;;4984459;28;20062;-66
2022/07/09 21:04:10;;;;;;;7.28;1.67;;;15.20;99.90;;;;;;4965581;28;20059;-66
2022/07/09 21:06:36;;;;;;;6.57;1.50;;;15.20;99.90;;;;;;4975515;28;20043;-66
2022/07/09 21:09:01;;;;;;;5.20;1.65;;;15.30;99.90;;;;;;4978268;28;20419;-66
2022/07/09 21:11:27;;;;;;;4.50;1.75;;;15.20;99.90;;;;;;4966669;28;20035;-66
2022/07/09 21:13:53;;;;;;;6.82;1.70;;;15.20;99.90;;;;;;4970989;28;20034;-66
2022/07/09 21:18:45;;;;;;;8.27;1.70;;;15.20;99.90;;;;;;4982083;28;20438;-66
2022/07/09 21:19:04;;;;;;;7.78;1.65;;;15.20;99.90;;;;;;4994337;28;20100;-66
2022/07/09 21:21:29;;;;;;;5.10;1.60;;;15.20;99.90;;;;;;4964174;28;20043;-66
2022/07/09 21:23:55;;;;;;;9.48;1.98;;;15.20;99.90;;;;;;4973324;28;20046;-66
2022/07/09 21:26:21;;;;;;;8.60;1.98;;;15.10;99.90;;;;;;4974454;28;20522;-66
2022/07/09 21:28:47;;;;;;;5.93;1.80;;;15.10;99.90;;;;;;4974642;28;20069;-66
2022/07/09 21:31:12;;;;;;;6.95;1.60;;;15.10;99.90;;;;;;4963360;28;20458;-66
2022/07/09 21:33:38;;;;;;;4.82;1.65;;;15.10;99.90;;;;;;4972816;28;20471;-66
2022/07/09 21:36:04;;;;;;;4.93;2.03;;;15.10;99.90;;;;;;4974716;28;20173;-66
2022/07/09 21:38:30;;;;;;;5.70;1.42;;;15.10;99.90;;;;;;4955724;28;20045;-66
2022/07/09 21:40:57;;;;;;;6.95;1.95;;;15.00;99.90;;;;;;4967213;28;20113;-66
2022/07/09 21:43:24;;;;;;;4.63;1.38;;;15.00;99.90;;;;;;4973773;28;20042;-66
2022/07/09 21:45:50;;;;;;;5.68;1.60;;;15.00;99.90;;;;;;4974322;28;20051;-66
2022/07/09 21:48:16;;;;;;;7.47;1.70;;;14.90;99.90;;;;;;4967910;28;20050;-66
2022/07/09 21:50:41;;;;;;;8.32;1.70;;;14.80;99.90;;;;;;4987542;28;20073;-66
2022/07/09 21:53:07;;;;;;;4.43;1.50;;;14.80;99.90;;;;;;4971326;28;20121;-66
2022/07/09 21:55:32;;;;;;;5.53;1.55;;;14.70;99.90;;;;;;4971769;28;20074;-66
2022/07/09 21:57:58;;;;;;;5.18;1.70;;;14.60;99.90;;;;;;4973870;28;20030;-66
2022/07/09 22:00:40;;;;;;;8.25;1.67;;;14.50;99.90;;;;;;4971293;28;20430;-66
2022/07/09 22:03:05;;;;;;;7.25;1.92;;;14.40;99.90;;;;;;4968015;28;20480;-66
2022/07/09 22:05:31;;;;;;;7.60;1.58;;;14.30;99.90;;;;;;4965373;28;20042;-66
2022/07/09 22:07:56;;;;;;;10.18;1.65;;;14.20;99.90;;;;;;4974003;28;20047;-66
2022/07/09 22:10:22;;;;;;;7.70;1.67;;;14.10;99.90;;;;;;4965554;28;20551;-66
2022/07/09 22:12:48;;;;;;;4.55;1.70;;;14.10;99.90;;;;;;4970909;28;20053;-66
2022/07/09 22:15:13;;;;;;;9.95;1.70;;;14.00;99.90;;;;;;4973243;28;20101;-66
2022/07/09 22:17:39;;;;;;;5.70;1.70;;;14.10;99.90;;;;;;4970666;28;20134;-66
2022/07/09 22:20:05;;;;;;;8.15;1.90;;;14.10;99.90;;;;;;4967234;28;20507;-66
2022/07/09 22:22:31;;;;;;;5.95;1.63;;;14.10;99.90;;;;;;4970871;28;20521;-66
2022/07/09 22:24:57;;;;;;;6.28;1.95;;;14.10;99.90;;;;;;4973112;28;20121;-66
2022/07/09 22:27:22;;;;;;;8.60;2.20;;;14.10;99.90;;;;;;4969450;28;20042;-66
2022/07/09 22:29:48;;;;;;;4.40;2.00;;;14.10;99.90;;;;;;4957305;28;20034;-66
2022/07/09 22:32:14;;;;;;;6.60;2.38;;;14.10;99.90;;;;;;4971717;28;20113;-66
2022/07/09 22:34:40;;;;;;;4.80;1.67;;;14.10;99.90;;;;;;4972184;28;20054;-66
2022/07/09 22:37:06;;;;;;;7.90;1.88;;;14.10;99.90;;;;;;4964497;28;20039;-66
2022/07/09 22:39:31;;;;;;;5.90;1.67;;;14.00;99.90;;;;;;4969617;28;20051;-66
2022/07/09 22:41:57;;;;;;;7.32;2.00;;;13.90;99.90;;;;;;4968496;28;20082;-66
2022/07/09 22:44:22;;;;;;;5.80;1.70;;;13.90;99.90;;;;;;4969220;28;21257;-66
2022/07/09 22:46:48;;;;;;;11.38;1.92;;;13.80;99.90;;;;;;4972227;28;20042;-66
2022/07/09 22:49:15;;;;;;;5.65;1.80;;;13.70;99.90;;;;;;4972724;28;20046;-66
2022/07/09 22:51:41;;;;;;;7.93;2.00;;;13.70;99.90;;;;;;4972764;28;20042;-66
2022/07/09 22:54:06;;;;;;;7.35;2.20;;;13.70;99.90;;;;;;4962313;28;20043;-66
2022/07/09 22:56:32;;;;;;;8.60;2.20;;;13.70;99.90;;;;;;4970109;28;20038;-66
2022/07/09 22:58:57;;;;;;;5.70;1.98;;;13.70;99.90;;;;;;4972075;28;20174;-66
2022/07/09 23:01:23;;;;;;;8.07;2.20;;;13.60;99.90;;;;;;4965040;28;20551;-67
2022/07/09 23:03:49;;;;;;;6.72;1.80;;;13.60;99.90;;;;;;4967484;28;20035;-67
2022/07/09 23:06:14;;;;;;;7.00;2.30;;;13.50;99.90;;;;;;4972689;28;20050;-67
2022/07/09 23:08:55;;;;;;;7.03;1.85;;;13.60;99.90;;;;;;4966453;28;20035;-66
2022/07/09 23:11:22;;;;;;;8.57;2.10;;;13.50;99.90;;;;;;4969874;28;20092;-67
2022/07/09 23:13:48;;;;;;;6.15;1.90;;;13.40;99.90;;;;;;4964529;28;20135;-66
2022/07/09 23:16:14;;;;;;;6.90;2.10;;;13.40;99.90;;;;;;4971503;28;20120;-66
2022/07/09 23:18:40;;;;;;;7.25;2.08;;;13.40;99.90;;;;;;4962311;28;20087;-66
2022/07/09 23:21:05;;;;;;;8.32;2.63;;;13.40;99.90;;;;;;4971947;28;20066;-67
2022/07/09 23:23:31;;;;;;;7.15;2.50;;;13.40;99.90;;;;;;4971363;28;20053;-67
2022/07/09 23:25:56;;;;;;;5.57;2.42;;;13.40;99.90;;;;;;4959222;28;20054;-67
2022/07/09 23:28:22;;;;;;;6.38;2.38;;;13.50;99.90;;;;;;4972080;28;20064;-67
2022/07/09 23:30:48;;;;;;;6.30;2.35;;;13.50;99.90;;;;;;4984150;28;20038;-67
2022/07/09 23:33:13;;;;;;;7.93;2.20;;;13.50;99.90;;;;;;4986861;28;20042;-67
2022/07/09 23:35:39;;;;;;;8.20;2.85;;;13.50;99.90;;;;;;4964107;28;20487;-66
2022/07/09 23:38:04;;;;;;;5.72;2.13;;;13.50;99.90;;;;;;4972010;28;20031;-67
2022/07/09 23:40:30;;;;;;;5.78;2.10;;;13.40;99.90;;;;;;4972873;28;20098;-66
2022/07/09 23:42:56;;;;;;;5.70;2.28;;;13.40;99.90;;;;;;4954461;28;20035;-66
2022/07/09 23:45:22;;;;;;;8.43;2.40;;;13.30;99.90;;;;;;4967621;28;20050;-67
2022/07/09 23:47:47;;;;;;;5.85;2.85;;;13.20;99.90;;;;;;4990692;28;20050;-66
2022/07/09 23:50:14;;;;;;;8.43;2.15;;;13.30;99.90;;;;;;4963729;28;20043;-67
2022/07/09 23:52:40;;;;;;;7.30;2.30;;;13.20;99.90;;;;;;4959757;28;20126;-66
2022/07/09 23:55:08;;;;;;;7.55;2.15;;;13.10;99.90;;;;;;4971772;28;20054;-67
2022/07/09 23:57:38;;;;;;;6.25;2.10;;;13.10;99.90;;;;;;4972583;28;20390;-66
